sensor_id;sensor_type;location;lat;lon;timestamp;P1;durP1;ratioP1;P2;durP2;ratioP2
323;SDS011;149;51.094;17.002;2022-10-16T00:00:04;9.20;;;7.78;;
323;SDS011;149;51.094;17.002;2022-10-16T00:02:33;7.93;;;7.13;;
323;SDS011;149;51.094;17.002;2022-10-16T00:05:01;9.00;;;8.02;;
323;SDS011;149;51.094;17.002;2022-10-16T00:07:28;9.65;;;8.02;;
323;SDS011;149;51.094;17.002;2022-10-16T00:09:56;8.77;;;7.85;;
323;SDS011;149;51.094;17.002;2022-10-16T00:12:23;10.60;;;8.00;;
323;SDS011;149;51.094;17.002;2022-10-16T00:14:52;8.25;;;7.18;;
323;SDS011;149;51.094;17.002;2022-10-16T00:17:21;8.60;;;7.70;;
323;SDS011;149;51.094;17.002;2022-10-16T00:19:48;10.88;;;7.72;;
323;SDS011;149;51.094;17.002;2022-10-16T00:22:15;8.98;;;7.05;;
323;SDS011;149;51.094;17.002;2022-10-16T00:24:43;7.75;;;7.00;;
323;SDS011;149;51.094;17.002;2022-10-16T00:27:12;7.97;;;7.18;;
323;SDS011;149;51.094;17.002;2022-10-16T00:29:43;10.68;;;8.65;;
323;SDS011;149;51.094;17.002;2022-10-16T00:32:12;9.60;;;8.18;;
323;SDS011;149;51.094;17.002;2022-10-16T00:34:43;9.80;;;8.45;;
323;SDS011;149;51.094;17.002;2022-10-16T00:37:13;11.98;;;7.90;;
323;SDS011;149;51.094;17.002;2022-10-16T00:39:51;12.95;;;8.43;;
323;SDS011;149;51.094;17.002;2022-10-16T00:42:19;12.13;;;9.23;;
323;SDS011;149;51.094;17.002;2022-10-16T00:44:52;12.15;;;9.15;;
323;SDS011;149;51.094;17.002;2022-10-16T00:47:29;12.50;;;8.00;;
323;SDS011;149;51.094;17.002;2022-10-16T00:50:21;9.20;;;8.30;;
323;SDS011;149;51.094;17.002;2022-10-16T00:53:01;9.38;;;7.95;;
323;SDS011;149;51.094;17.002;2022-10-16T00:55:30;9.63;;;8.60;;
323;SDS011;149;51.094;17.002;2022-10-16T00:57:57;11.30;;;8.25;;
323;SDS011;149;51.094;17.002;2022-10-16T01:00:25;13.32;;;8.80;;
323;SDS011;149;51.094;17.002;2022-10-16T01:02:57;9.32;;;8.32;;
323;SDS011;149;51.094;17.002;2022-10-16T01:05:52;11.68;;;9.45;;
323;SDS011;149;51.094;17.002;2022-10-16T01:08:22;9.40;;;8.43;;
323;SDS011;149;51.094;17.002;2022-10-16T01:11:05;10.10;;;8.30;;
323;SDS011;149;51.094;17.002;2022-10-16T01:14:00;8.10;;;7.30;;
323;SDS011;149;51.094;17.002;2022-10-16T01:16:49;10.60;;;8.57;;
323;SDS011;149;51.094;17.002;2022-10-16T01:19:41;10.00;;;7.72;;
323;SDS011;149;51.094;17.002;2022-10-16T01:22:12;9.27;;;6.97;;
323;SDS011;149;51.094;17.002;2022-10-16T01:24:45;10.40;;;7.45;;
323;SDS011;149;51.094;17.002;2022-10-16T01:27:20;9.57;;;8.57;;
323;SDS011;149;51.094;17.002;2022-10-16T01:40:39;9.95;;;6.70;;
323;SDS011;149;51.094;17.002;2022-10-16T01:43:12;8.85;;;7.75;;
323;SDS011;149;51.094;17.002;2022-10-16T01:45:48;9.05;;;8.02;;
323;SDS011;149;51.094;17.002;2022-10-16T01:48:22;9.82;;;8.55;;
323;SDS011;149;51.094;17.002;2022-10-16T01:50:59;8.10;;;6.80;;
323;SDS011;149;51.094;17.002;2022-10-16T01:53:30;9.10;;;7.60;;
323;SDS011;149;51.094;17.002;2022-10-16T01:55:59;10.13;;;9.23;;
323;SDS011;149;51.094;17.002;2022-10-16T01:58:28;8.63;;;7.72;;
323;SDS011;149;51.094;17.002;2022-10-16T02:01:04;13.95;;;6.97;;
323;SDS011;149;51.094;17.002;2022-10-16T02:04:02;8.95;;;7.65;;
323;SDS011;149;51.094;17.002;2022-10-16T02:06:36;10.50;;;7.63;;
323;SDS011;149;51.094;17.002;2022-10-16T02:09:04;11.77;;;8.00;;
323;SDS011;149;51.094;17.002;2022-10-16T02:11:40;8.20;;;7.15;;
323;SDS011;149;51.094;17.002;2022-10-16T02:14:07;7.10;;;6.40;;
323;SDS011;149;51.094;17.002;2022-10-16T02:16:40;7.90;;;7.10;;
323;SDS011;149;51.094;17.002;2022-10-16T02:19:09;8.18;;;7.25;;
323;SDS011;149;51.094;17.002;2022-10-16T02:21:50;12.55;;;8.20;;
323;SDS011;149;51.094;17.002;2022-10-16T02:27:20;7.97;;;7.18;;
323;SDS011;149;51.094;17.002;2022-10-16T02:30:09;9.98;;;7.82;;
323;SDS011;149;51.094;17.002;2022-10-16T02:32:57;11.90;;;8.15;;
323;SDS011;149;51.094;17.002;2022-10-16T02:35:30;9.18;;;8.35;;
323;SDS011;149;51.094;17.002;2022-10-16T02:38:00;8.90;;;8.00;;
323;SDS011;149;51.094;17.002;2022-10-16T02:40:28;10.10;;;9.20;;
323;SDS011;149;51.094;17.002;2022-10-16T02:42:55;15.43;;;8.82;;
323;SDS011;149;51.094;17.002;2022-10-16T02:45:28;17.02;;;8.60;;
323;SDS011;149;51.094;17.002;2022-10-16T02:47:56;9.80;;;8.90;;
323;SDS011;149;51.094;17.002;2022-10-16T02:50:26;8.77;;;7.97;;
323;SDS011;149;51.094;17.002;2022-10-16T02:52:54;11.70;;;8.32;;
323;SDS011;149;51.094;17.002;2022-10-16T02:55:30;11.07;;;8.60;;
323;SDS011;149;51.094;17.002;2022-10-16T02:57:59;14.35;;;9.55;;
323;SDS011;149;51.094;17.002;2022-10-16T03:00:26;14.35;;;10.70;;
323;SDS011;149;51.094;17.002;2022-10-16T03:02:55;11.45;;;8.25;;
323;SDS011;149;51.094;17.002;2022-10-16T03:05:22;11.38;;;9.02;;
323;SDS011;149;51.094;17.002;2022-10-16T03:07:51;9.95;;;8.45;;
323;SDS011;149;51.094;17.002;2022-10-16T03:10:21;9.38;;;8.27;;
323;SDS011;149;51.094;17.002;2022-10-16T03:12:49;12.38;;;8.13;;
323;SDS011;149;51.094;17.002;2022-10-16T03:15:17;10.90;;;8.32;;
323;SDS011;149;51.094;17.002;2022-10-16T03:17:44;10.10;;;7.88;;
323;SDS011;149;51.094;17.002;2022-10-16T03:20:12;8.82;;;7.78;;
323;SDS011;149;51.094;17.002;2022-10-16T03:22:39;10.57;;;9.38;;
323;SDS011;149;51.094;17.002;2022-10-16T03:25:10;17.27;;;9.27;;
323;SDS011;149;51.094;17.002;2022-10-16T03:27:39;9.98;;;8.93;;
323;SDS011;149;51.094;17.002;2022-10-16T03:30:06;10.18;;;8.70;;
323;SDS011;149;51.094;17.002;2022-10-16T03:32:35;12.38;;;11.18;;
323;SDS011;149;51.094;17.002;2022-10-16T03:35:03;9.18;;;8.25;;
323;SDS011;149;51.094;17.002;2022-10-16T03:37:31;10.68;;;7.93;;
323;SDS011;149;51.094;17.002;2022-10-16T03:39:59;9.03;;;8.00;;
323;SDS011;149;51.094;17.002;2022-10-16T03:42:26;9.65;;;8.65;;
323;SDS011;149;51.094;17.002;2022-10-16T03:44:55;8.85;;;7.97;;
323;SDS011;149;51.094;17.002;2022-10-16T03:47:23;9.75;;;8.57;;
323;SDS011;149;51.094;17.002;2022-10-16T03:49:51;8.27;;;7.40;;
323;SDS011;149;51.094;17.002;2022-10-16T03:52:18;16.33;;;8.87;;
323;SDS011;149;51.094;17.002;2022-10-16T03:54:45;7.65;;;6.95;;
323;SDS011;149;51.094;17.002;2022-10-16T03:57:13;9.52;;;8.48;;
323;SDS011;149;51.094;17.002;2022-10-16T03:59:39;10.43;;;8.52;;
323;SDS011;149;51.094;17.002;2022-10-16T04:02:08;8.48;;;7.55;;
323;SDS011;149;51.094;17.002;2022-10-16T04:04:38;9.57;;;7.68;;
323;SDS011;149;51.094;17.002;2022-10-16T04:07:05;9.88;;;8.85;;
323;SDS011;149;51.094;17.002;2022-10-16T04:09:38;9.02;;;8.13;;
323;SDS011;149;51.094;17.002;2022-10-16T04:12:05;8.95;;;8.05;;
323;SDS011;149;51.094;17.002;2022-10-16T04:14:33;8.57;;;7.35;;
323;SDS011;149;51.094;17.002;2022-10-16T04:17:03;8.88;;;7.97;;
323;SDS011;149;51.094;17.002;2022-10-16T04:19:34;9.85;;;8.75;;
323;SDS011;149;51.094;17.002;2022-10-16T04:22:06;13.30;;;10.38;;
323;SDS011;149;51.094;17.002;2022-10-16T04:24:40;9.48;;;7.50;;
323;SDS011;149;51.094;17.002;2022-10-16T04:27:09;11.45;;;8.82;;
323;SDS011;149;51.094;17.002;2022-10-16T04:29:43;14.23;;;8.63;;
323;SDS011;149;51.094;17.002;2022-10-16T04:32:10;13.82;;;9.05;;
323;SDS011;149;51.094;17.002;2022-10-16T04:34:51;12.90;;;11.55;;
323;SDS011;149;51.094;17.002;2022-10-16T04:37:23;15.77;;;12.35;;
323;SDS011;149;51.094;17.002;2022-10-16T04:39:51;17.35;;;11.80;;
323;SDS011;149;51.094;17.002;2022-10-16T04:42:20;12.20;;;10.25;;
323;SDS011;149;51.094;17.002;2022-10-16T04:44:49;15.73;;;11.90;;
323;SDS011;149;51.094;17.002;2022-10-16T04:47:17;15.05;;;12.00;;
323;SDS011;149;51.094;17.002;2022-10-16T04:49:44;18.38;;;14.00;;
323;SDS011;149;51.094;17.002;2022-10-16T04:52:12;12.20;;;10.18;;
323;SDS011;149;51.094;17.002;2022-10-16T04:54:42;16.58;;;12.73;;
323;SDS011;149;51.094;17.002;2022-10-16T04:57:13;14.75;;;12.60;;
323;SDS011;149;51.094;17.002;2022-10-16T04:59:41;17.27;;;13.90;;
323;SDS011;149;51.094;17.002;2022-10-16T05:02:09;19.00;;;12.07;;
323;SDS011;149;51.094;17.002;2022-10-16T05:04:37;18.13;;;12.70;;
323;SDS011;149;51.094;17.002;2022-10-16T05:07:04;16.10;;;12.73;;
323;SDS011;149;51.094;17.002;2022-10-16T05:09:37;13.77;;;11.18;;
323;SDS011;149;51.094;17.002;2022-10-16T05:12:07;15.13;;;12.45;;
323;SDS011;149;51.094;17.002;2022-10-16T05:14:35;13.90;;;10.65;;
323;SDS011;149;51.094;17.002;2022-10-16T05:17:09;13.00;;;10.95;;
323;SDS011;149;51.094;17.002;2022-10-16T05:19:38;12.98;;;9.30;;
323;SDS011;149;51.094;17.002;2022-10-16T05:22:06;13.90;;;11.55;;
323;SDS011;149;51.094;17.002;2022-10-16T05:24:36;14.10;;;12.57;;
323;SDS011;149;51.094;17.002;2022-10-16T05:27:03;10.20;;;9.15;;
323;SDS011;149;51.094;17.002;2022-10-16T05:29:32;11.73;;;10.50;;
323;SDS011;149;51.094;17.002;2022-10-16T05:32:02;10.95;;;8.93;;
323;SDS011;149;51.094;17.002;2022-10-16T05:34:30;11.63;;;9.00;;
323;SDS011;149;51.094;17.002;2022-10-16T05:37:00;9.55;;;8.63;;
323;SDS011;149;51.094;17.002;2022-10-16T05:39:28;8.95;;;8.05;;
323;SDS011;149;51.094;17.002;2022-10-16T05:41:58;9.55;;;8.55;;
323;SDS011;149;51.094;17.002;2022-10-16T05:44:39;11.43;;;9.85;;
323;SDS011;149;51.094;17.002;2022-10-16T05:47:10;8.90;;;8.00;;
323;SDS011;149;51.094;17.002;2022-10-16T05:49:41;9.52;;;7.68;;
323;SDS011;149;51.094;17.002;2022-10-16T05:52:26;13.18;;;9.05;;
323;SDS011;149;51.094;17.002;2022-10-16T05:55:22;12.38;;;9.10;;
323;SDS011;149;51.094;17.002;2022-10-16T05:57:56;9.48;;;7.47;;
323;SDS011;149;51.094;17.002;2022-10-16T06:00:25;9.57;;;7.95;;
323;SDS011;149;51.094;17.002;2022-10-16T06:02:58;9.48;;;7.07;;
323;SDS011;149;51.094;17.002;2022-10-16T06:05:25;10.68;;;7.68;;
323;SDS011;149;51.094;17.002;2022-10-16T06:07:56;8.10;;;6.88;;
323;SDS011;149;51.094;17.002;2022-10-16T06:10:26;6.10;;;5.50;;
323;SDS011;149;51.094;17.002;2022-10-16T06:12:56;7.63;;;6.93;;
323;SDS011;149;51.094;17.002;2022-10-16T06:15:25;8.37;;;7.17;;
323;SDS011;149;51.094;17.002;2022-10-16T06:17:54;7.20;;;6.33;;
323;SDS011;149;51.094;17.002;2022-10-16T06:20:21;6.95;;;5.65;;
323;SDS011;149;51.094;17.002;2022-10-16T06:22:48;7.17;;;6.50;;
323;SDS011;149;51.094;17.002;2022-10-16T06:25:15;6.73;;;5.83;;
323;SDS011;149;51.094;17.002;2022-10-16T06:27:43;6.60;;;5.90;;
323;SDS011;149;51.094;17.002;2022-10-16T06:30:21;6.60;;;5.90;;
323;SDS011;149;51.094;17.002;2022-10-16T06:32:49;10.87;;;6.20;;
323;SDS011;149;51.094;17.002;2022-10-16T06:35:17;9.18;;;6.13;;
323;SDS011;149;51.094;17.002;2022-10-16T06:37:48;7.20;;;6.57;;
323;SDS011;149;51.094;17.002;2022-10-16T06:42:54;7.67;;;6.53;;
323;SDS011;149;51.094;17.002;2022-10-16T06:45:24;7.07;;;6.33;;
323;SDS011;149;51.094;17.002;2022-10-16T06:47:52;5.30;;;4.80;;
323;SDS011;149;51.094;17.002;2022-10-16T06:50:19;6.50;;;5.70;;
323;SDS011;149;51.094;17.002;2022-10-16T06:52:48;5.87;;;5.37;;
323;SDS011;149;51.094;17.002;2022-10-16T06:55:15;7.10;;;6.33;;
323;SDS011;149;51.094;17.002;2022-10-16T06:57:46;5.40;;;4.90;;
323;SDS011;149;51.094;17.002;2022-10-16T07:00:15;5.27;;;4.77;;
323;SDS011;149;51.094;17.002;2022-10-16T07:02:46;5.30;;;4.80;;
323;SDS011;149;51.094;17.002;2022-10-16T07:05:13;7.10;;;5.73;;
323;SDS011;149;51.094;17.002;2022-10-16T07:07:42;10.07;;;6.22;;
323;SDS011;149;51.094;17.002;2022-10-16T07:10:15;8.27;;;5.33;;
323;SDS011;149;51.094;17.002;2022-10-16T07:12:47;7.23;;;6.53;;
323;SDS011;149;51.094;17.002;2022-10-16T07:15:15;8.63;;;5.50;;
323;SDS011;149;51.094;17.002;2022-10-16T07:17:43;8.07;;;5.47;;
323;SDS011;149;51.094;17.002;2022-10-16T07:20:17;4.80;;;4.30;;
323;SDS011;149;51.094;17.002;2022-10-16T07:22:47;4.43;;;4.03;;
323;SDS011;149;51.094;17.002;2022-10-16T07:25:14;5.28;;;4.78;;
323;SDS011;149;51.094;17.002;2022-10-16T07:27:41;4.28;;;3.88;;
323;SDS011;149;51.094;17.002;2022-10-16T07:30:12;4.30;;;3.90;;
323;SDS011;149;51.094;17.002;2022-10-16T07:32:53;7.60;;;4.90;;
323;SDS011;149;51.094;17.002;2022-10-16T07:35:22;5.03;;;4.00;;
323;SDS011;149;51.094;17.002;2022-10-16T07:37:49;5.37;;;4.87;;
323;SDS011;149;51.094;17.002;2022-10-16T07:40:16;3.53;;;3.17;;
323;SDS011;149;51.094;17.002;2022-10-16T07:42:52;3.30;;;3.00;;
323;SDS011;149;51.094;17.002;2022-10-16T07:45:20;5.17;;;3.87;;
323;SDS011;149;51.094;17.002;2022-10-16T07:48:02;4.90;;;3.80;;
323;SDS011;149;51.094;17.002;2022-10-16T07:50:33;3.93;;;3.63;;
323;SDS011;149;51.094;17.002;2022-10-16T07:53:01;5.10;;;3.83;;
323;SDS011;149;51.094;17.002;2022-10-16T07:55:29;4.43;;;4.03;;
323;SDS011;149;51.094;17.002;2022-10-16T07:57:56;4.17;;;3.30;;
323;SDS011;149;51.094;17.002;2022-10-16T08:00:24;4.87;;;3.90;;
323;SDS011;149;51.094;17.002;2022-10-16T08:02:53;5.30;;;3.10;;
323;SDS011;149;51.094;17.002;2022-10-16T08:05:23;5.57;;;3.60;;
323;SDS011;149;51.094;17.002;2022-10-16T08:07:56;3.47;;;3.20;;
323;SDS011;149;51.094;17.002;2022-10-16T08:10:24;3.20;;;2.90;;
323;SDS011;149;51.094;17.002;2022-10-16T08:12:58;3.20;;;2.90;;
323;SDS011;149;51.094;17.002;2022-10-16T08:15:26;4.20;;;3.10;;
323;SDS011;149;51.094;17.002;2022-10-16T08:17:54;3.80;;;3.50;;
323;SDS011;149;51.094;17.002;2022-10-16T08:20:27;3.43;;;3.13;;
323;SDS011;149;51.094;17.002;2022-10-16T08:22:55;5.37;;;3.20;;
323;SDS011;149;51.094;17.002;2022-10-16T08:25:27;3.80;;;3.47;;
323;SDS011;149;51.094;17.002;2022-10-16T08:27:55;3.20;;;2.90;;
323;SDS011;149;51.094;17.002;2022-10-16T08:30:27;3.00;;;2.70;;
323;SDS011;149;51.094;17.002;2022-10-16T08:32:54;3.50;;;2.90;;
323;SDS011;149;51.094;17.002;2022-10-16T08:35:23;2.90;;;2.70;;
323;SDS011;149;51.094;17.002;2022-10-16T08:37:51;5.43;;;3.25;;
323;SDS011;149;51.094;17.002;2022-10-16T08:40:24;4.60;;;2.77;;
323;SDS011;149;51.094;17.002;2022-10-16T08:45:38;2.57;;;2.37;;
323;SDS011;149;51.094;17.002;2022-10-16T08:51:14;8.20;;;3.20;;
323;SDS011;149;51.094;17.002;2022-10-16T08:53:52;4.20;;;3.47;;
323;SDS011;149;51.094;17.002;2022-10-16T08:56:30;3.03;;;2.73;;
323;SDS011;149;51.094;17.002;2022-10-16T08:58:58;3.50;;;3.03;;
323;SDS011;149;51.094;17.002;2022-10-16T09:01:38;3.00;;;2.70;;
323;SDS011;149;51.094;17.002;2022-10-16T09:09:44;3.10;;;2.80;;
323;SDS011;149;51.094;17.002;2022-10-16T09:12:27;3.40;;;3.03;;
323;SDS011;149;51.094;17.002;2022-10-16T09:17:58;3.90;;;3.07;;
323;SDS011;149;51.094;17.002;2022-10-16T09:21:01;3.60;;;3.23;;
323;SDS011;149;51.094;17.002;2022-10-16T09:24:13;3.50;;;3.20;;
323;SDS011;149;51.094;17.002;2022-10-16T09:26:54;3.07;;;2.60;;
323;SDS011;149;51.094;17.002;2022-10-16T09:29:21;3.67;;;3.27;;
323;SDS011;149;51.094;17.002;2022-10-16T09:31:52;3.03;;;2.83;;
323;SDS011;149;51.094;17.002;2022-10-16T09:34:27;3.27;;;2.97;;
323;SDS011;149;51.094;17.002;2022-10-16T09:36:55;3.47;;;2.30;;
323;SDS011;149;51.094;17.002;2022-10-16T09:39:24;3.43;;;3.13;;
323;SDS011;149;51.094;17.002;2022-10-16T09:41:54;3.00;;;2.80;;
323;SDS011;149;51.094;17.002;2022-10-16T09:44:28;2.80;;;2.60;;
323;SDS011;149;51.094;17.002;2022-10-16T09:47:02;3.37;;;3.03;;
323;SDS011;149;51.094;17.002;2022-10-16T09:49:33;2.67;;;2.47;;
323;SDS011;149;51.094;17.002;2022-10-16T09:52:05;5.90;;;5.20;;
323;SDS011;149;51.094;17.002;2022-10-16T09:54:37;6.13;;;5.33;;
323;SDS011;149;51.094;17.002;2022-10-16T09:57:16;6.70;;;6.03;;
323;SDS011;149;51.094;17.002;2022-10-16T09:59:47;4.40;;;3.60;;
323;SDS011;149;51.094;17.002;2022-10-16T10:02:16;4.63;;;4.30;;
323;SDS011;149;51.094;17.002;2022-10-16T10:04:53;4.10;;;3.70;;
323;SDS011;149;51.094;17.002;2022-10-16T10:07:26;3.70;;;3.20;;
323;SDS011;149;51.094;17.002;2022-10-16T10:10:04;4.87;;;4.40;;
323;SDS011;149;51.094;17.002;2022-10-16T10:12:33;3.97;;;3.43;;
323;SDS011;149;51.094;17.002;2022-10-16T10:17:44;4.70;;;2.93;;
323;SDS011;149;51.094;17.002;2022-10-16T10:20:25;3.30;;;3.07;;
323;SDS011;149;51.094;17.002;2022-10-16T10:22:56;6.50;;;3.83;;
323;SDS011;149;51.094;17.002;2022-10-16T10:25:29;5.00;;;2.83;;
323;SDS011;149;51.094;17.002;2022-10-16T10:30:53;3.50;;;3.20;;
323;SDS011;149;51.094;17.002;2022-10-16T10:33:33;6.33;;;2.63;;
323;SDS011;149;51.094;17.002;2022-10-16T10:51:23;4.30;;;3.90;;
323;SDS011;149;51.094;17.002;2022-10-16T10:56:46;3.50;;;2.00;;
323;SDS011;149;51.094;17.002;2022-10-16T11:02:41;2.70;;;2.50;;
323;SDS011;149;51.094;17.002;2022-10-16T11:05:31;3.03;;;2.40;;
323;SDS011;149;51.094;17.002;2022-10-16T11:11:46;2.78;;;2.58;;
323;SDS011;149;51.094;17.002;2022-10-16T11:14:23;5.60;;;5.10;;
323;SDS011;149;51.094;17.002;2022-10-16T11:16:58;4.40;;;3.97;;
323;SDS011;149;51.094;17.002;2022-10-16T11:19:35;3.90;;;3.50;;
323;SDS011;149;51.094;17.002;2022-10-16T11:25:15;2.77;;;2.57;;
323;SDS011;149;51.094;17.002;2022-10-16T11:28:01;2.60;;;2.40;;
323;SDS011;149;51.094;17.002;2022-10-16T11:30:44;3.63;;;3.00;;
323;SDS011;149;51.094;17.002;2022-10-16T11:36:11;2.57;;;2.37;;
323;SDS011;149;51.094;17.002;2022-10-16T11:39:34;2.20;;;2.10;;
323;SDS011;149;51.094;17.002;2022-10-16T11:45:14;1.83;;;1.73;;
323;SDS011;149;51.094;17.002;2022-10-16T11:48:23;2.20;;;2.10;;
323;SDS011;149;51.094;17.002;2022-10-16T11:51:15;10.83;;;2.87;;
323;SDS011;149;51.094;17.002;2022-10-16T11:54:01;2.70;;;2.50;;
323;SDS011;149;51.094;17.002;2022-10-16T11:56:51;7.33;;;4.37;;
323;SDS011;149;51.094;17.002;2022-10-16T12:02:26;3.20;;;2.77;;
323;SDS011;149;51.094;17.002;2022-10-16T12:05:09;2.40;;;2.20;;
323;SDS011;149;51.094;17.002;2022-10-16T12:08:06;2.77;;;2.57;;
323;SDS011;149;51.094;17.002;2022-10-16T12:10:38;3.50;;;2.93;;
323;SDS011;149;51.094;17.002;2022-10-16T12:18:45;2.93;;;2.73;;
323;SDS011;149;51.094;17.002;2022-10-16T12:21:15;4.83;;;2.60;;
323;SDS011;149;51.094;17.002;2022-10-16T12:23:49;3.83;;;3.40;;
323;SDS011;149;51.094;17.002;2022-10-16T12:26:26;2.77;;;2.57;;
323;SDS011;149;51.094;17.002;2022-10-16T12:29:09;3.87;;;3.20;;
323;SDS011;149;51.094;17.002;2022-10-16T12:31:54;4.10;;;2.90;;
323;SDS011;149;51.094;17.002;2022-10-16T12:34:28;5.87;;;4.33;;
323;SDS011;149;51.094;17.002;2022-10-16T12:37:24;3.83;;;3.53;;
323;SDS011;149;51.094;17.002;2022-10-16T12:39:55;6.33;;;3.70;;
323;SDS011;149;51.094;17.002;2022-10-16T12:44:59;6.30;;;5.00;;
323;SDS011;149;51.094;17.002;2022-10-16T12:49:57;6.27;;;5.03;;
323;SDS011;149;51.094;17.002;2022-10-16T12:52:34;7.13;;;4.22;;
323;SDS011;149;51.094;17.002;2022-10-16T12:55:06;7.43;;;5.00;;
323;SDS011;149;51.094;17.002;2022-10-16T13:00:45;5.20;;;4.70;;
323;SDS011;149;51.094;17.002;2022-10-16T13:12:35;4.93;;;4.43;;
323;SDS011;149;51.094;17.002;2022-10-16T13:15:18;6.13;;;5.50;;
323;SDS011;149;51.094;17.002;2022-10-16T13:18:12;4.90;;;4.40;;
323;SDS011;149;51.094;17.002;2022-10-16T13:20:56;6.87;;;4.80;;
323;SDS011;149;51.094;17.002;2022-10-16T13:29:42;4.70;;;4.27;;
323;SDS011;149;51.094;17.002;2022-10-16T13:32:10;4.50;;;4.10;;
323;SDS011;149;51.094;17.002;2022-10-16T13:34:44;6.93;;;6.13;;
323;SDS011;149;51.094;17.002;2022-10-16T13:37:19;11.43;;;4.57;;
323;SDS011;149;51.094;17.002;2022-10-16T13:39:48;5.20;;;4.70;;
323;SDS011;149;51.094;17.002;2022-10-16T13:42:22;4.40;;;4.00;;
323;SDS011;149;51.094;17.002;2022-10-16T13:44:54;4.13;;;3.53;;
323;SDS011;149;51.094;17.002;2022-10-16T13:47:28;3.57;;;3.27;;
323;SDS011;149;51.094;17.002;2022-10-16T13:50:04;4.30;;;3.90;;
323;SDS011;149;51.094;17.002;2022-10-16T13:52:39;4.50;;;4.00;;
323;SDS011;149;51.094;17.002;2022-10-16T13:55:11;4.20;;;3.80;;
323;SDS011;149;51.094;17.002;2022-10-16T13:57:41;3.90;;;3.60;;
323;SDS011;149;51.094;17.002;2022-10-16T14:00:23;4.00;;;3.70;;
323;SDS011;149;51.094;17.002;2022-10-16T14:03:05;4.03;;;3.73;;
323;SDS011;149;51.094;17.002;2022-10-16T14:05:47;4.70;;;4.30;;
323;SDS011;149;51.094;17.002;2022-10-16T14:08:28;3.90;;;3.47;;
323;SDS011;149;51.094;17.002;2022-10-16T14:10:57;4.47;;;4.07;;
323;SDS011;149;51.094;17.002;2022-10-16T14:13:37;4.50;;;4.10;;
323;SDS011;149;51.094;17.002;2022-10-16T14:16:19;4.07;;;3.77;;
323;SDS011;149;51.094;17.002;2022-10-16T14:19:05;4.90;;;4.00;;
323;SDS011;149;51.094;17.002;2022-10-16T14:21:33;5.10;;;4.50;;
323;SDS011;149;51.094;17.002;2022-10-16T14:24:11;4.20;;;3.80;;
323;SDS011;149;51.094;17.002;2022-10-16T14:26:42;4.77;;;4.13;;
323;SDS011;149;51.094;17.002;2022-10-16T14:29:18;3.83;;;3.43;;
323;SDS011;149;51.094;17.002;2022-10-16T14:32:00;14.53;;;10.30;;
323;SDS011;149;51.094;17.002;2022-10-16T14:34:29;8.37;;;5.60;;
323;SDS011;149;51.094;17.002;2022-10-16T14:37:01;5.50;;;5.00;;
323;SDS011;149;51.094;17.002;2022-10-16T14:39:40;7.00;;;6.00;;
323;SDS011;149;51.094;17.002;2022-10-16T14:42:16;4.40;;;4.00;;
323;SDS011;149;51.094;17.002;2022-10-16T14:44:45;6.57;;;5.87;;
323;SDS011;149;51.094;17.002;2022-10-16T14:47:13;4.77;;;4.30;;
323;SDS011;149;51.094;17.002;2022-10-16T14:49:48;4.87;;;3.37;;
323;SDS011;149;51.094;17.002;2022-10-16T14:52:15;5.87;;;5.37;;
323;SDS011;149;51.094;17.002;2022-10-16T14:54:42;5.68;;;5.10;;
323;SDS011;149;51.094;17.002;2022-10-16T14:57:17;5.50;;;4.40;;
323;SDS011;149;51.094;17.002;2022-10-16T14:59:45;4.88;;;4.53;;
323;SDS011;149;51.094;17.002;2022-10-16T15:04:57;7.57;;;6.27;;
323;SDS011;149;51.094;17.002;2022-10-16T15:07:28;5.78;;;5.28;;
323;SDS011;149;51.094;17.002;2022-10-16T15:09:55;6.32;;;5.70;;
323;SDS011;149;51.094;17.002;2022-10-16T15:12:23;5.30;;;4.80;;
323;SDS011;149;51.094;17.002;2022-10-16T15:14:50;4.60;;;4.20;;
323;SDS011;149;51.094;17.002;2022-10-16T15:17:21;7.37;;;6.70;;
323;SDS011;149;51.094;17.002;2022-10-16T15:19:48;6.43;;;5.07;;
323;SDS011;149;51.094;17.002;2022-10-16T15:22:16;6.60;;;6.00;;
323;SDS011;149;51.094;17.002;2022-10-16T15:24:44;5.07;;;4.57;;
323;SDS011;149;51.094;17.002;2022-10-16T15:27:12;5.67;;;5.17;;
323;SDS011;149;51.094;17.002;2022-10-16T15:29:40;5.23;;;4.73;;
323;SDS011;149;51.094;17.002;2022-10-16T15:32:08;7.03;;;5.43;;
323;SDS011;149;51.094;17.002;2022-10-16T15:34:36;6.13;;;5.63;;
323;SDS011;149;51.094;17.002;2022-10-16T15:37:05;6.90;;;5.53;;
323;SDS011;149;51.094;17.002;2022-10-16T15:39:33;9.13;;;6.40;;
323;SDS011;149;51.094;17.002;2022-10-16T15:42:06;6.33;;;5.77;;
323;SDS011;149;51.094;17.002;2022-10-16T15:44:36;6.60;;;6.00;;
323;SDS011;149;51.094;17.002;2022-10-16T15:47:03;7.00;;;6.30;;
323;SDS011;149;51.094;17.002;2022-10-16T15:49:31;6.57;;;5.97;;
323;SDS011;149;51.094;17.002;2022-10-16T15:52:01;9.17;;;7.73;;
323;SDS011;149;51.094;17.002;2022-10-16T15:54:29;7.67;;;6.93;;
323;SDS011;149;51.094;17.002;2022-10-16T15:56:57;6.43;;;5.78;;
323;SDS011;149;51.094;17.002;2022-10-16T15:59:24;9.60;;;6.83;;
323;SDS011;149;51.094;17.002;2022-10-16T16:01:52;7.67;;;6.43;;
323;SDS011;149;51.094;17.002;2022-10-16T16:04:20;8.63;;;7.20;;
323;SDS011;149;51.094;17.002;2022-10-16T16:07:09;7.90;;;7.10;;
323;SDS011;149;51.094;17.002;2022-10-16T16:09:37;9.00;;;7.60;;
323;SDS011;149;51.094;17.002;2022-10-16T16:12:04;6.83;;;6.13;;
323;SDS011;149;51.094;17.002;2022-10-16T16:14:33;7.60;;;6.90;;
323;SDS011;149;51.094;17.002;2022-10-16T16:17:00;8.20;;;6.70;;
323;SDS011;149;51.094;17.002;2022-10-16T16:19:28;7.37;;;6.77;;
323;SDS011;149;51.094;17.002;2022-10-16T16:21:58;7.30;;;6.60;;
323;SDS011;149;51.094;17.002;2022-10-16T16:24:25;6.90;;;6.20;;
323;SDS011;149;51.094;17.002;2022-10-16T16:26:52;8.23;;;7.53;;
323;SDS011;149;51.094;17.002;2022-10-16T16:29:22;8.93;;;8.00;;
323;SDS011;149;51.094;17.002;2022-10-16T16:31:56;9.90;;;7.13;;
323;SDS011;149;51.094;17.002;2022-10-16T16:34:34;7.73;;;6.83;;
323;SDS011;149;51.094;17.002;2022-10-16T16:37:10;8.43;;;7.63;;
323;SDS011;149;51.094;17.002;2022-10-16T16:39:44;8.83;;;7.40;;
323;SDS011;149;51.094;17.002;2022-10-16T16:42:22;9.70;;;8.80;;
323;SDS011;149;51.094;17.002;2022-10-16T16:44:50;8.90;;;7.97;;
323;SDS011;149;51.094;17.002;2022-10-16T16:47:21;8.47;;;7.57;;
323;SDS011;149;51.094;17.002;2022-10-16T16:49:49;11.93;;;9.02;;
323;SDS011;149;51.094;17.002;2022-10-16T16:52:34;9.10;;;8.20;;
323;SDS011;149;51.094;17.002;2022-10-16T16:55:02;9.73;;;7.80;;
323;SDS011;149;51.094;17.002;2022-10-16T16:57:33;9.10;;;8.30;;
323;SDS011;149;51.094;17.002;2022-10-16T17:00:02;12.00;;;9.20;;
323;SDS011;149;51.094;17.002;2022-10-16T17:02:30;10.63;;;9.43;;
323;SDS011;149;51.094;17.002;2022-10-16T17:04:57;10.23;;;9.03;;
323;SDS011;149;51.094;17.002;2022-10-16T17:07:30;9.47;;;8.47;;
323;SDS011;149;51.094;17.002;2022-10-16T17:10:02;11.07;;;9.87;;
323;SDS011;149;51.094;17.002;2022-10-16T17:12:30;13.67;;;10.77;;
323;SDS011;149;51.094;17.002;2022-10-16T17:14:58;11.93;;;10.73;;
323;SDS011;149;51.094;17.002;2022-10-16T17:17:25;10.83;;;9.50;;
323;SDS011;149;51.094;17.002;2022-10-16T17:19:57;12.80;;;11.40;;
323;SDS011;149;51.094;17.002;2022-10-16T17:22:30;12.67;;;11.47;;
323;SDS011;149;51.094;17.002;2022-10-16T17:25:00;16.52;;;14.52;;
323;SDS011;149;51.094;17.002;2022-10-16T17:27:30;13.70;;;10.77;;
323;SDS011;149;51.094;17.002;2022-10-16T17:30:02;13.47;;;12.07;;
323;SDS011;149;51.094;17.002;2022-10-16T17:32:45;15.57;;;10.43;;
323;SDS011;149;51.094;17.002;2022-10-16T17:35:15;13.57;;;10.63;;
323;SDS011;149;51.094;17.002;2022-10-16T17:37:58;13.77;;;11.37;;
323;SDS011;149;51.094;17.002;2022-10-16T17:40:27;15.33;;;11.40;;
323;SDS011;149;51.094;17.002;2022-10-16T17:43:00;15.63;;;10.60;;